sensor_id;sensor_type;location;lat;lon;timestamp;temperature;humidity
30385;DHT22;17181;51.002;4.096;2023-02-01T00:01:20;8.30;99.90
30385;DHT22;17181;51.002;4.096;2023-02-01T00:03:46;8.30;99.90
30385;DHT22;17181;51.002;4.096;2023-02-01T00:06:12;8.30;99.90
30385;DHT22;17181;51.002;4.096;2023-02-01T00:08:37;8.40;99.90
30385;DHT22;17181;51.002;4.096;2023-02-01T00:11:06;8.40;99.90
30385;DHT22;17181;51.002;4.096;2023-02-01T00:13:34;8.40;99.90
30385;DHT22;17181;51.002;4.096;2023-02-01T00:16:08;8.40;99.90
30385;DHT22;17181;51.002;4.096;2023-02-01T00:18:35;8.50;99.90
30385;DHT22;17181;51.002;4.096;2023-02-01T00:21:01;8.40;99.90
30385;DHT22;17181;51.002;4.096;2023-02-01T00:23:27;8.40;99.90
30385;DHT22;17181;51.002;4.096;2023-02-01T00:25:52;8.30;99.90
30385;DHT22;17181;51.002;4.096;2023-02-01T00:28:18;8.40;99.90
30385;DHT22;17181;51.002;4.096;2023-02-01T00:30:44;8.30;99.90
30385;DHT22;17181;51.002;4.096;2023-02-01T00:33:10;8.30;99.90
30385;DHT22;17181;51.002;4.096;2023-02-01T00:35:35;8.30;99.90
30385;DHT22;17181;51.002;4.096;2023-02-01T00:38:02;8.20;99.90
30385;DHT22;17181;51.002;4.096;2023-02-01T00:40:28;8.20;99.90
30385;DHT22;17181;51.002;4.096;2023-02-01T00:42:53;8.20;99.90
30385;DHT22;17181;51.002;4.096;2023-02-01T00:45:19;8.20;99.90
30385;DHT22;17181;51.002;4.096;2023-02-01T00:47:45;8.20;99.90
30385;DHT22;17181;51.002;4.096;2023-02-01T00:50:11;8.10;99.90
30385;DHT22;17181;51.002;4.096;2023-02-01T00:52:37;8.10;99.90
30385;DHT22;17181;51.002;4.096;2023-02-01T00:55:02;8.10;99.90
30385;DHT22;17181;51.002;4.096;2023-02-01T00:57:28;8.00;99.90
30385;DHT22;17181;51.002;4.096;2023-02-01T00:59:54;8.00;99.90
30385;DHT22;17181;51.002;4.096;2023-02-01T01:02:20;7.90;99.90
30385;DHT22;17181;51.002;4.096;2023-02-01T01:04:46;7.90;99.90
30385;DHT22;17181;51.002;4.096;2023-02-01T01:07:12;7.90;99.90
30385;DHT22;17181;51.002;4.096;2023-02-01T01:09:38;7.90;99.90
30385;DHT22;17181;51.002;4.096;2023-02-01T01:12:03;7.80;99.90
30385;DHT22;17181;51.002;4.096;2023-02-01T01:14:31;7.80;99.90
30385;DHT22;17181;51.002;4.096;2023-02-01T01:16:57;7.80;99.90
30385;DHT22;17181;51.002;4.096;2023-02-01T01:19:23;7.80;99.90
30385;DHT22;17181;51.002;4.096;2023-02-01T01:21:49;7.70;99.90
30385;DHT22;17181;51.002;4.096;2023-02-01T01:24:15;7.70;99.90
30385;DHT22;17181;51.002;4.096;2023-02-01T01:26:41;7.70;99.90
30385;DHT22;17181;51.002;4.096;2023-02-01T01:29:09;7.60;99.90
30385;DHT22;17181;51.002;4.096;2023-02-01T01:31:35;7.60;99.90
30385;DHT22;17181;51.002;4.096;2023-02-01T01:34:01;7.50;99.90
30385;DHT22;17181;51.002;4.096;2023-02-01T01:36:28;7.50;99.90
30385;DHT22;17181;51.002;4.096;2023-02-01T01:38:54;7.50;99.90
30385;DHT22;17181;51.002;4.096;2023-02-01T01:41:23;7.50;99.90
30385;DHT22;17181;51.002;4.096;2023-02-01T01:44:04;7.40;99.90
30385;DHT22;17181;51.002;4.096;2023-02-01T01:46:37;7.40;99.90
30385;DHT22;17181;51.002;4.096;2023-02-01T01:49:10;7.30;99.90
30385;DHT22;17181;51.002;4.096;2023-02-01T01:52:01;7.30;99.90
30385;DHT22;17181;51.002;4.096;2023-02-01T01:54:29;7.30;99.90
30385;DHT22;17181;51.002;4.096;2023-02-01T01:56:58;7.30;99.90
30385;DHT22;17181;51.002;4.096;2023-02-01T01:59:26;7.20;99.90
30385;DHT22;17181;51.002;4.096;2023-02-01T02:01:53;7.20;99.90
30385;DHT22;17181;51.002;4.096;2023-02-01T02:04:19;7.10;99.90
30385;DHT22;17181;51.002;4.096;2023-02-01T02:06:50;7.10;99.90
30385;DHT22;17181;51.002;4.096;2023-02-01T02:09:18;7.10;99.90
30385;DHT22;17181;51.002;4.096;2023-02-01T02:11:44;7.10;99.90
30385;DHT22;17181;51.002;4.096;2023-02-01T02:14:11;7.10;99.90
30385;DHT22;17181;51.002;4.096;2023-02-01T02:17:11;7.20;99.90
30385;DHT22;17181;51.002;4.096;2023-02-01T02:25:48;7.20;99.90
30385;DHT22;17181;51.002;4.096;2023-02-01T02:42:02;7.10;99.90
30385;DHT22;17181;51.002;4.096;2023-02-01T02:44:55;7.10;99.90
30385;DHT22;17181;51.002;4.096;2023-02-01T02:50:32;7.10;99.90
30385;DHT22;17181;51.002;4.096;2023-02-01T02:56:33;7.10;99.90
30385;DHT22;17181;51.002;4.096;2023-02-01T02:59:20;7.10;99.90
30385;DHT22;17181;51.002;4.096;2023-02-01T03:02:07;7.10;99.90
30385;DHT22;17181;51.002;4.096;2023-02-01T03:04:53;7.10;99.90
30385;DHT22;17181;51.002;4.096;2023-02-01T03:13:30;7.20;99.90
30385;DHT22;17181;51.002;4.096;2023-02-01T03:24:18;7.20;99.90
30385;DHT22;17181;51.002;4.096;2023-02-01T03:27:03;7.20;99.90
30385;DHT22;17181;51.002;4.096;2023-02-01T03:30:12;7.20;99.90
30385;DHT22;17181;51.002;4.096;2023-02-01T03:32:28;7.20;99.90
30385;DHT22;17181;51.002;4.096;2023-02-01T03:34:54;7.20;99.90
30385;DHT22;17181;51.002;4.096;2023-02-01T03:37:25;7.20;99.90
30385;DHT22;17181;51.002;4.096;2023-02-01T03:40:05;7.20;99.90
30385;DHT22;17181;51.002;4.096;2023-02-01T03:42:40;7.20;99.90
30385;DHT22;17181;51.002;4.096;2023-02-01T03:45:24;7.20;99.90
30385;DHT22;17181;51.002;4.096;2023-02-01T03:47:55;7.20;99.90
30385;DHT22;17181;51.002;4.096;2023-02-01T03:50:23;7.20;99.90
30385;DHT22;17181;51.002;4.096;2023-02-01T03:52:54;7.20;99.90
30385;DHT22;17181;51.002;4.096;2023-02-01T03:55:22;7.20;99.90
30385;DHT22;17181;51.002;4.096;2023-02-01T03:58:06;7.20;99.90
30385;DHT22;17181;51.002;4.096;2023-02-01T04:00:33;7.20;99.90
30385;DHT22;17181;51.002;4.096;2023-02-01T04:02:59;7.20;99.90
30385;DHT22;17181;51.002;4.096;2023-02-01T04:05:25;7.20;99.90
30385;DHT22;17181;51.002;4.096;2023-02-01T04:07:56;7.20;99.90
30385;DHT22;17181;51.002;4.096;2023-02-01T04:10:22;7.10;99.90
30385;DHT22;17181;51.002;4.096;2023-02-01T04:12:48;7.10;99.90
30385;DHT22;17181;51.002;4.096;2023-02-01T04:15:14;7.10;99.90
30385;DHT22;17181;51.002;4.096;2023-02-01T04:17:40;7.10;99.90
30385;DHT22;17181;51.002;4.096;2023-02-01T04:20:06;7.10;99.90
30385;DHT22;17181;51.002;4.096;2023-02-01T04:22:32;7.00;99.90
30385;DHT22;17181;51.002;4.096;2023-02-01T04:24:57;7.10;99.90
30385;DHT22;17181;51.002;4.096;2023-02-01T04:27:23;7.00;99.90
30385;DHT22;17181;51.002;4.096;2023-02-01T04:29:49;7.00;99.90
30385;DHT22;17181;51.002;4.096;2023-02-01T04:32:16;7.00;99.90
30385;DHT22;17181;51.002;4.096;2023-02-01T04:34:42;7.00;99.90
30385;DHT22;17181;51.002;4.096;2023-02-01T04:37:07;7.00;99.90
30385;DHT22;17181;51.002;4.096;2023-02-01T04:39:33;6.90;99.90
30385;DHT22;17181;51.002;4.096;2023-02-01T04:41:59;6.90;99.90
30385;DHT22;17181;51.002;4.096;2023-02-01T04:44:25;6.90;99.90
30385;DHT22;17181;51.002;4.096;2023-02-01T04:46:51;6.90;99.90
30385;DHT22;17181;51.002;4.096;2023-02-01T04:49:16;6.90;99.90
30385;DHT22;17181;51.002;4.096;2023-02-01T04:51:43;6.80;99.90
30385;DHT22;17181;51.002;4.096;2023-02-01T04:54:09;6.80;99.90
30385;DHT22;17181;51.002;4.096;2023-02-01T04:56:37;6.90;99.90
30385;DHT22;17181;51.002;4.096;2023-02-01T04:59:03;6.80;99.90
30385;DHT22;17181;51.002;4.096;2023-02-01T05:01:29;6.80;99.90
30385;DHT22;17181;51.002;4.096;2023-02-01T05:03:55;6.90;99.90
30385;DHT22;17181;51.002;4.096;2023-02-01T05:06:21;6.80;99.90
30385;DHT22;17181;51.002;4.096;2023-02-01T05:08:48;6.70;99.90
30385;DHT22;17181;51.002;4.096;2023-02-01T05:11:13;6.80;99.90
30385;DHT22;17181;51.002;4.096;2023-02-01T05:13:58;6.70;99.90
30385;DHT22;17181;51.002;4.096;2023-02-01T05:16:25;6.70;99.90
30385;DHT22;17181;51.002;4.096;2023-02-01T05:18:51;6.60;99.90
30385;DHT22;17181;51.002;4.096;2023-02-01T05:21:17;6.70;99.90
30385;DHT22;17181;51.002;4.096;2023-02-01T05:23:43;6.60;99.90
30385;DHT22;17181;51.002;4.096;2023-02-01T05:26:27;6.60;99.90
30385;DHT22;17181;51.002;4.096;2023-02-01T05:28:53;6.60;99.90
30385;DHT22;17181;51.002;4.096;2023-02-01T05:31:19;6.50;99.90
30385;DHT22;17181;51.002;4.096;2023-02-01T05:33:44;6.50;99.90
30385;DHT22;17181;51.002;4.096;2023-02-01T05:36:10;6.50;99.90
30385;DHT22;17181;51.002;4.096;2023-02-01T05:38:36;6.50;99.90
30385;DHT22;17181;51.002;4.096;2023-02-01T05:41:02;6.50;99.90
30385;DHT22;17181;51.002;4.096;2023-02-01T05:43:27;6.50;99.90
30385;DHT22;17181;51.002;4.096;2023-02-01T05:45:54;6.50;99.90
30385;DHT22;17181;51.002;4.096;2023-02-01T05:48:20;6.50;99.90
30385;DHT22;17181;51.002;4.096;2023-02-01T05:50:46;6.50;99.90
30385;DHT22;17181;51.002;4.096;2023-02-01T05:53:12;6.50;99.90
30385;DHT22;17181;51.002;4.096;2023-02-01T05:55:38;6.50;99.90
30385;DHT22;17181;51.002;4.096;2023-02-01T05:58:04;6.50;99.90
30385;DHT22;17181;51.002;4.096;2023-02-01T06:00:30;6.40;99.90
30385;DHT22;17181;51.002;4.096;2023-02-01T06:02:56;6.40;99.90
30385;DHT22;17181;51.002;4.096;2023-02-01T06:05:22;6.40;99.90
30385;DHT22;17181;51.002;4.096;2023-02-01T06:07:48;6.50;99.90
30385;DHT22;17181;51.002;4.096;2023-02-01T06:10:16;6.40;99.90
30385;DHT22;17181;51.002;4.096;2023-02-01T06:12:43;6.40;99.90
30385;DHT22;17181;51.002;4.096;2023-02-01T06:15:13;6.40;99.90
30385;DHT22;17181;51.002;4.096;2023-02-01T06:17:42;6.40;99.90
30385;DHT22;17181;51.002;4.096;2023-02-01T06:20:09;6.40;99.90
30385;DHT22;17181;51.002;4.096;2023-02-01T06:22:36;6.40;99.90
30385;DHT22;17181;51.002;4.096;2023-02-01T06:25:03;6.40;99.90
30385;DHT22;17181;51.002;4.096;2023-02-01T06:27:29;6.40;99.90
30385;DHT22;17181;51.002;4.096;2023-02-01T06:29:56;6.40;99.90
30385;DHT22;17181;51.002;4.096;2023-02-01T06:32:22;6.40;99.90
30385;DHT22;17181;51.002;4.096;2023-02-01T06:34:48;6.40;99.90
30385;DHT22;17181;51.002;4.096;2023-02-01T06:37:14;6.40;99.90
30385;DHT22;17181;51.002;4.096;2023-02-01T06:39:39;6.40;99.90
30385;DHT22;17181;51.002;4.096;2023-02-01T06:42:05;6.40;99.90
30385;DHT22;17181;51.002;4.096;2023-02-01T06:44:31;6.30;99.90
30385;DHT22;17181;51.002;4.096;2023-02-01T06:46:57;6.30;99.90
30385;DHT22;17181;51.002;4.096;2023-02-01T06:49:22;6.30;99.90
30385;DHT22;17181;51.002;4.096;2023-02-01T06:51:48;6.30;99.90
30385;DHT22;17181;51.002;4.096;2023-02-01T06:54:14;6.30;99.90
30385;DHT22;17181;51.002;4.096;2023-02-01T06:56:40;6.30;99.90
30385;DHT22;17181;51.002;4.096;2023-02-01T06:59:06;6.30;99.90
30385;DHT22;17181;51.002;4.096;2023-02-01T07:01:32;6.20;99.90
30385;DHT22;17181;51.002;4.096;2023-02-01T07:03:58;6.20;99.90
30385;DHT22;17181;51.002;4.096;2023-02-01T07:06:24;6.30;99.90
30385;DHT22;17181;51.002;4.096;2023-02-01T07:08:50;6.30;99.90
30385;DHT22;17181;51.002;4.096;2023-02-01T07:11:20;6.30;99.90
30385;DHT22;17181;51.002;4.096;2023-02-01T07:13:45;6.30;99.90
30385;DHT22;17181;51.002;4.096;2023-02-01T07:16:17;6.30;99.90
30385;DHT22;17181;51.002;4.096;2023-02-01T07:18:43;6.30;99.90
30385;DHT22;17181;51.002;4.096;2023-02-01T07:21:09;6.30;99.90
30385;DHT22;17181;51.002;4.096;2023-02-01T07:23:35;6.30;99.90
30385;DHT22;17181;51.002;4.096;2023-02-01T07:26:03;6.30;99.90
30385;DHT22;17181;51.002;4.096;2023-02-01T07:28:31;6.30;99.90
30385;DHT22;17181;51.002;4.096;2023-02-01T07:31:05;6.30;99.90
30385;DHT22;17181;51.002;4.096;2023-02-01T07:33:31;6.30;99.90
30385;DHT22;17181;51.002;4.096;2023-02-01T07:35:57;6.30;99.90
30385;DHT22;17181;51.002;4.096;2023-02-01T07:38:23;6.30;99.90
30385;DHT22;17181;51.002;4.096;2023-02-01T07:40:49;6.30;99.90
30385;DHT22;17181;51.002;4.096;2023-02-01T07:43:15;6.20;99.90
30385;DHT22;17181;51.002;4.096;2023-02-01T07:45:41;6.30;99.90
30385;DHT22;17181;51.002;4.096;2023-02-01T07:48:06;6.30;99.90
30385;DHT22;17181;51.002;4.096;2023-02-01T07:50:32;6.30;99.90
30385;DHT22;17181;51.002;4.096;2023-02-01T07:52:59;6.30;99.90
30385;DHT22;17181;51.002;4.096;2023-02-01T07:55:26;6.30;99.90
30385;DHT22;17181;51.002;4.096;2023-02-01T07:57:52;6.40;99.90
30385;DHT22;17181;51.002;4.096;2023-02-01T08:00:18;6.40;99.90
30385;DHT22;17181;51.002;4.096;2023-02-01T08:03:04;6.40;99.90
30385;DHT22;17181;51.002;4.096;2023-02-01T08:05:30;6.50;99.90
30385;DHT22;17181;51.002;4.096;2023-02-01T08:07:55;6.50;99.90
30385;DHT22;17181;51.002;4.096;2023-02-01T08:10:21;6.50;99.90
30385;DHT22;17181;51.002;4.096;2023-02-01T08:12:47;6.60;99.90
30385;DHT22;17181;51.002;4.096;2023-02-01T08:15:14;6.60;99.90
30385;DHT22;17181;51.002;4.096;2023-02-01T08:17:48;6.60;99.90
30385;DHT22;17181;51.002;4.096;2023-02-01T08:20:14;6.60;99.90
30385;DHT22;17181;51.002;4.096;2023-02-01T08:22:40;6.70;99.90
30385;DHT22;17181;51.002;4.096;2023-02-01T08:25:06;6.80;99.90
30385;DHT22;17181;51.002;4.096;2023-02-01T08:27:33;6.80;99.90
30385;DHT22;17181;51.002;4.096;2023-02-01T08:29:59;6.80;99.90
30385;DHT22;17181;51.002;4.096;2023-02-01T08:32:26;6.80;99.90
30385;DHT22;17181;51.002;4.096;2023-02-01T08:34:53;6.80;99.90
30385;DHT22;17181;51.002;4.096;2023-02-01T08:37:18;6.90;99.90
30385;DHT22;17181;51.002;4.096;2023-02-01T08:39:44;6.90;99.90
30385;DHT22;17181;51.002;4.096;2023-02-01T08:42:11;6.90;99.90
30385;DHT22;17181;51.002;4.096;2023-02-01T08:44:55;7.00;99.90
30385;DHT22;17181;51.002;4.096;2023-02-01T08:47:21;7.00;99.90
30385;DHT22;17181;51.002;4.096;2023-02-01T08:49:47;7.00;99.90
30385;DHT22;17181;51.002;4.096;2023-02-01T08:52:13;7.10;99.90
30385;DHT22;17181;51.002;4.096;2023-02-01T08:54:39;7.10;99.90
30385;DHT22;17181;51.002;4.096;2023-02-01T08:57:06;7.10;99.90
30385;DHT22;17181;51.002;4.096;2023-02-01T08:59:32;7.10;99.90
30385;DHT22;17181;51.002;4.096;2023-02-01T09:02:01;7.20;99.90
30385;DHT22;17181;51.002;4.096;2023-02-01T09:04:27;7.20;99.90
30385;DHT22;17181;51.002;4.096;2023-02-01T09:06:52;7.20;99.90
30385;DHT22;17181;51.002;4.096;2023-02-01T09:09:21;7.30;99.90
30385;DHT22;17181;51.002;4.096;2023-02-01T09:11:47;7.40;99.90
30385;DHT22;17181;51.002;4.096;2023-02-01T09:14:13;7.40;99.90
30385;DHT22;17181;51.002;4.096;2023-02-01T09:16:39;7.60;99.90
30385;DHT22;17181;51.002;4.096;2023-02-01T09:19:04;7.60;99.90
30385;DHT22;17181;51.002;4.096;2023-02-01T09:21:30;7.70;99.90
30385;DHT22;17181;51.002;4.096;2023-02-01T09:23:56;7.80;99.90
30385;DHT22;17181;51.002;4.096;2023-02-01T09:26:22;7.80;99.90
30385;DHT22;17181;51.002;4.096;2023-02-01T09:28:47;7.90;99.90
30385;DHT22;17181;51.002;4.096;2023-02-01T09:31:13;7.90;99.90
30385;DHT22;17181;51.002;4.096;2023-02-01T09:33:39;8.00;99.90
30385;DHT22;17181;51.002;4.096;2023-02-01T09:36:05;8.00;99.90
30385;DHT22;17181;51.002;4.096;2023-02-01T09:38:31;8.10;99.90
30385;DHT22;17181;51.002;4.096;2023-02-01T09:40:58;8.20;99.90
30385;DHT22;17181;51.002;4.096;2023-02-01T09:43:45;8.20;99.90
30385;DHT22;17181;51.002;4.096;2023-02-01T09:46:33;8.30;99.90
30385;DHT22;17181;51.002;4.096;2023-02-01T09:49:16;8.40;99.90
30385;DHT22;17181;51.002;4.096;2023-02-01T09:51:47;8.50;99.90
30385;DHT22;17181;51.002;4.096;2023-02-01T09:54:19;8.50;99.90
30385;DHT22;17181;51.002;4.096;2023-02-01T09:57:08;8.60;99.90
30385;DHT22;17181;51.002;4.096;2023-02-01T09:59:39;8.70;99.90
30385;DHT22;17181;51.002;4.096;2023-02-01T10:02:21;8.80;99.90
30385;DHT22;17181;51.002;4.096;2023-02-01T10:04:48;8.90;99.90
30385;DHT22;17181;51.002;4.096;2023-02-01T10:10:14;9.10;99.90
30385;DHT22;17181;51.002;4.096;2023-02-01T10:18:30;9.30;99.90
30385;DHT22;17181;51.002;4.096;2023-02-01T10:27:06;9.50;99.90
30385;DHT22;17181;51.002;4.096;2023-02-01T10:29:40;9.50;99.90
30385;DHT22;17181;51.002;4.096;2023-02-01T10:32:18;9.60;99.90
30385;DHT22;17181;51.002;4.096;2023-02-01T10:34:58;9.60;99.90
30385;DHT22;17181;51.002;4.096;2023-02-01T10:37:32;9.70;99.90
30385;DHT22;17181;51.002;4.096;2023-02-01T10:40:15;9.80;99.90
30385;DHT22;17181;51.002;4.096;2023-02-01T10:42:42;9.80;99.90
30385;DHT22;17181;51.002;4.096;2023-02-01T10:45:19;9.90;99.90
30385;DHT22;17181;51.002;4.096;2023-02-01T10:47:46;9.90;99.90
30385;DHT22;17181;51.002;4.096;2023-02-01T10:50:19;10.00;99.90
30385;DHT22;17181;51.002;4.096;2023-02-01T10:52:54;10.10;99.90
30385;DHT22;17181;51.002;4.096;2023-02-01T10:57:59;10.20;99.90
30385;DHT22;17181;51.002;4.096;2023-02-01T11:00:26;10.30;99.90
30385;DHT22;17181;51.002;4.096;2023-02-01T11:02:53;10.30;99.90
30385;DHT22;17181;51.002;4.096;2023-02-01T11:05:20;10.30;99.90
30385;DHT22;17181;51.002;4.096;2023-02-01T11:07:53;10.40;99.90
30385;DHT22;17181;51.002;4.096;2023-02-01T11:10:38;10.50;99.90
30385;DHT22;17181;51.002;4.096;2023-02-01T11:13:15;10.50;99.90
30385;DHT22;17181;51.002;4.096;2023-02-01T11:15:46;10.40;99.90
30385;DHT22;17181;51.002;4.096;2023-02-01T11:18:20;10.40;99.90
30385;DHT22;17181;51.002;4.096;2023-02-01T11:20:49;10.40;99.90
30385;DHT22;17181;51.002;4.096;2023-02-01T11:23:20;10.30;99.90
30385;DHT22;17181;51.002;4.096;2023-02-01T11:25:55;10.30;99.90
30385;DHT22;17181;51.002;4.096;2023-02-01T11:28:25;10.30;99.90
30385;DHT22;17181;51.002;4.096;2023-02-01T11:30:54;10.30;99.90
30385;DHT22;17181;51.002;4.096;2023-02-01T11:33:30;10.30;99.90
30385;DHT22;17181;51.002;4.096;2023-02-01T11:35:59;10.40;99.90
30385;DHT22;17181;51.002;4.096;2023-02-01T11:38:31;10.40;99.90
30385;DHT22;17181;51.002;4.096;2023-02-01T11:41:17;10.50;99.90
30385;DHT22;17181;51.002;4.096;2023-02-01T11:43:59;10.60;99.90
30385;DHT22;17181;51.002;4.096;2023-02-01T11:46:34;10.70;99.90
30385;DHT22;17181;51.002;4.096;2023-02-01T11:49:22;10.90;99.90
30385;DHT22;17181;51.002;4.096;2023-02-01T11:52:10;11.00;99.90
30385;DHT22;17181;51.002;4.096;2023-02-01T11:57:25;11.20;99.90
30385;DHT22;17181;51.002;4.096;2023-02-01T12:02:53;11.10;99.90
30385;DHT22;17181;51.002;4.096;2023-02-01T12:05:32;11.10;99.90
30385;DHT22;17181;51.002;4.096;2023-02-01T12:08:18;11.10;99.90
30385;DHT22;17181;51.002;4.096;2023-02-01T12:11:09;11.30;99.90
30385;DHT22;17181;51.002;4.096;2023-02-01T12:14:00;11.40;99.90
30385;DHT22;17181;51.002;4.096;2023-02-01T12:22:21;11.70;99.90
30385;DHT22;17181;51.002;4.096;2023-02-01T12:24:58;11.70;99.90
30385;DHT22;17181;51.002;4.096;2023-02-01T12:36:21;11.90;99.90
30385;DHT22;17181;51.002;4.096;2023-02-01T12:44:01;12.00;99.30
30385;DHT22;17181;51.002;4.096;2023-02-01T12:46:37;12.00;99.20
30385;DHT22;17181;51.002;4.096;2023-02-01T12:52:00;11.90;98.40
30385;DHT22;17181;51.002;4.096;2023-02-01T12:55:01;11.90;98.60
30385;DHT22;17181;51.002;4.096;2023-02-01T12:57:39;12.00;97.90
30385;DHT22;17181;51.002;4.096;2023-02-01T13:05:53;12.20;97.80
30385;DHT22;17181;51.002;4.096;2023-02-01T13:08:25;12.30;97.80
30385;DHT22;17181;51.002;4.096;2023-02-01T13:11:03;12.30;97.30
30385;DHT22;17181;51.002;4.096;2023-02-01T13:13:52;12.30;96.90
30385;DHT22;17181;51.002;4.096;2023-02-01T13:16:28;12.30;97.50
30385;DHT22;17181;51.002;4.096;2023-02-01T13:19:20;12.30;97.10
30385;DHT22;17181;51.002;4.096;2023-02-01T13:21:51;12.20;96.60
30385;DHT22;17181;51.002;4.096;2023-02-01T13:24:42;12.10;96.90
30385;DHT22;17181;51.002;4.096;2023-02-01T13:27:15;12.10;96.90
30385;DHT22;17181;51.002;4.096;2023-02-01T13:30:03;12.10;96.70
30385;DHT22;17181;51.002;4.096;2023-02-01T13:33:01;12.10;96.80
30385;DHT22;17181;51.002;4.096;2023-02-01T13:36:09;12.10;97.30
30385;DHT22;17181;51.002;4.096;2023-02-01T13:41:28;12.20;97.30
30385;DHT22;17181;51.002;4.096;2023-02-01T13:44:09;12.20;96.60
30385;DHT22;17181;51.002;4.096;2023-02-01T13:46:41;12.10;96.80
30385;DHT22;17181;51.002;4.096;2023-02-01T13:49:25;12.10;96.80
30385;DHT22;17181;51.002;4.096;2023-02-01T13:51:55;12.00;96.90
30385;DHT22;17181;51.002;4.096;2023-02-01T13:54:39;12.00;96.90
30385;DHT22;17181;51.002;4.096;2023-02-01T13:59:52;12.00;97.10
30385;DHT22;17181;51.002;4.096;2023-02-01T14:05:10;12.00;97.20
30385;DHT22;17181;51.002;4.096;2023-02-01T14:07:36;11.90;97.10
30385;DHT22;17181;51.002;4.096;2023-02-01T14:13:38;11.90;97.60
30385;DHT22;17181;51.002;4.096;2023-02-01T14:23:58;11.60;97.50
30385;DHT22;17181;51.002;4.096;2023-02-01T14:28:57;11.50;97.70
30385;DHT22;17181;51.002;4.096;2023-02-01T14:31:37;11.50;97.90
30385;DHT22;17181;51.002;4.096;2023-02-01T14:34:14;11.40;97.80
30385;DHT22;17181;51.002;4.096;2023-02-01T14:37:03;11.30;98.00
30385;DHT22;17181;51.002;4.096;2023-02-01T14:40:05;11.30;98.30
30385;DHT22;17181;51.002;4.096;2023-02-01T14:47:49;11.10;99.00
30385;DHT22;17181;51.002;4.096;2023-02-01T14:52:49;11.10;99.10
30385;DHT22;17181;51.002;4.096;2023-02-01T14:55:27;11.10;99.30
30385;DHT22;17181;51.002;4.096;2023-02-01T14:57:57;11.10;99.50
30385;DHT22;17181;51.002;4.096;2023-02-01T15:00:27;11.10;99.30
30385;DHT22;17181;51.002;4.096;2023-02-01T15:03:13;11.00;99.40
30385;DHT22;17181;51.002;4.096;2023-02-01T15:05:40;11.00;99.50
30385;DHT22;17181;51.002;4.096;2023-02-01T15:08:30;11.00;99.80
30385;DHT22;17181;51.002;4.096;2023-02-01T15:10:58;10.90;99.80
30385;DHT22;17181;51.002;4.096;2023-02-01T15:13:28;10.90;99.90
30385;DHT22;17181;51.002;4.096;2023-02-01T15:18:27;10.90;99.90
30385;DHT22;17181;51.002;4.096;2023-02-01T15:20:57;10.80;99.90
30385;DHT22;17181;51.002;4.096;2023-02-01T15:23:23;10.80;99.90
30385;DHT22;17181;51.002;4.096;2023-02-01T15:25:49;10.80;99.90
30385;DHT22;17181;51.002;4.096;2023-02-01T15:28:16;10.80;99.90
30385;DHT22;17181;51.002;4.096;2023-02-01T15:33:21;10.70;99.90
30385;DHT22;17181;51.002;4.096;2023-02-01T15:35:49;10.70;99.90
30385;DHT22;17181;51.002;4.096;2023-02-01T15:43:47;10.60;99.90
30385;DHT22;17181;51.002;4.096;2023-02-01T15:46:21;10.60;99.90
30385;DHT22;17181;51.002;4.096;2023-02-01T15:48:52;10.60;99.90
30385;DHT22;17181;51.002;4.096;2023-02-01T15:51:21;10.60;99.90
30385;DHT22;17181;51.002;4.096;2023-02-01T15:53:56;10.50;99.90
30385;DHT22;17181;51.002;4.096;2023-02-01T15:56:25;10.50;99.90
30385;DHT22;17181;51.002;4.096;2023-02-01T15:58:55;10.50;99.90
30385;DHT22;17181;51.002;4.096;2023-02-01T16:01:22;10.50;99.90
30385;DHT22;17181;51.002;4.096;2023-02-01T16:03:49;10.50;99.90
30385;DHT22;17181;51.002;4.096;2023-02-01T16:09:11;10.50;99.90
30385;DHT22;17181;51.002;4.096;2023-02-01T16:11:57;10.50;99.90
30385;DHT22;17181;51.002;4.096;2023-02-01T16:14:24;10.40;99.90
30385;DHT22;17181;51.002;4.096;2023-02-01T16:16:52;10.40;99.90
30385;DHT22;17181;51.002;4.096;2023-02-01T16:19:18;10.40;99.90
30385;DHT22;17181;51.002;4.096;2023-02-01T16:21:44;10.40;99.90
30385;DHT22;17181;51.002;4.096;2023-02-01T16:24:11;10.40;99.90
30385;DHT22;17181;51.002;4.096;2023-02-01T16:26:36;10.40;99.90
30385;DHT22;17181;51.002;4.096;2023-02-01T16:29:04;10.30;99.90
30385;DHT22;17181;51.002;4.096;2023-02-01T16:31:35;10.40;99.90
30385;DHT22;17181;51.002;4.096;2023-02-01T16:34:01;10.40;99.90
30385;DHT22;17181;51.002;4.096;2023-02-01T16:36:27;10.30;99.90
30385;DHT22;17181;51.002;4.096;2023-02-01T16:38:54;10.30;99.90
30385;DHT22;17181;51.002;4.096;2023-02-01T16:41:22;10.30;99.90
30385;DHT22;17181;51.002;4.096;2023-02-01T16:43:52;10.30;99.90
30385;DHT22;17181;51.002;4.096;2023-02-01T16:46:21;10.30;99.90
30385;DHT22;17181;51.002;4.096;2023-02-01T16:48:52;10.20;99.90
30385;DHT22;17181;51.002;4.096;2023-02-01T16:51:18;10.20;99.90
30385;DHT22;17181;51.002;4.096;2023-02-01T16:53:44;10.10;99.90
30385;DHT22;17181;51.002;4.096;2023-02-01T16:56:19;10.20;99.90
30385;DHT22;17181;51.002;4.096;2023-02-01T16:58:45;10.20;99.90
30385;DHT22;17181;51.002;4.096;2023-02-01T17:01:13;10.20;99.90
30385;DHT22;17181;51.002;4.096;2023-02-01T17:03:39;10.20;99.90
30385;DHT22;17181;51.002;4.096;2023-02-01T17:06:07;10.10;99.90
30385;DHT22;17181;51.002;4.096;2023-02-01T17:08:36;10.10;99.90
30385;DHT22;17181;51.002;4.096;2023-02-01T17:11:04;10.10;99.90
30385;DHT22;17181;51.002;4.096;2023-02-01T17:13:30;10.10;99.90
30385;DHT22;17181;51.002;4.096;2023-02-01T17:16:00;10.10;99.90
30385;DHT22;17181;51.002;4.096;2023-02-01T17:18:28;10.00;99.90
30385;DHT22;17181;51.002;4.096;2023-02-01T17:20:57;10.10;99.90
30385;DHT22;17181;51.002;4.096;2023-02-01T17:23:24;10.10;99.90
30385;DHT22;17181;51.002;4.096;2023-02-01T17:25:50;10.10;99.90
30385;DHT22;17181;51.002;4.096;2023-02-01T17:28:16;10.10;99.90
30385;DHT22;17181;51.002;4.096;2023-02-01T17:30:42;10.10;99.90
30385;DHT22;17181;51.002;4.096;2023-02-01T17:33:24;10.10;99.90
30385;DHT22;17181;51.002;4.096;2023-02-01T17:35:53;10.10;99.90
30385;DHT22;17181;51.002;4.096;2023-02-01T17:38:19;10.00;99.90
30385;DHT22;17181;51.002;4.096;2023-02-01T17:40:45;10.10;99.90
30385;DHT22;17181;51.002;4.096;2023-02-01T17:43:15;10.10;99.90
30385;DHT22;17181;51.002;4.096;2023-02-01T17:46:19;10.10;99.90
30385;DHT22;17181;51.002;4.096;2023-02-01T17:48:39;10.10;99.90
30385;DHT22;17181;51.002;4.096;2023-02-01T17:51:11;10.10;99.90
30385;DHT22;17181;51.002;4.096;2023-02-01T17:53:39;10.10;99.90
30385;DHT22;17181;51.002;4.096;2023-02-01T17:56:05;10.10;99.90
30385;DHT22;17181;51.002;4.096;2023-02-01T17:58:30;10.10;99.90
30385;DHT22;17181;51.002;4.096;2023-02-01T18:00:58;10.10;99.90
30385;DHT22;17181;51.002;4.096;2023-02-01T18:03:28;10.10;99.90
30385;DHT22;17181;51.002;4.096;2023-02-01T18:05:57;10.10;99.90
30385;DHT22;17181;51.002;4.096;2023-02-01T18:08:26;10.10;99.90
30385;DHT22;17181;51.002;4.096;2023-02-01T18:10:57;10.10;99.90
30385;DHT22;17181;51.002;4.096;2023-02-01T18:13:30;10.10;99.90
30385;DHT22;17181;51.002;4.096;2023-02-01T18:15:57;10.10;99.90